sensor_id;sensor_type;location;lat;lon;timestamp;P1;durP1;ratioP1;P2;durP2;ratioP2
39276;SDS011;63149;48.086;-1.606;2023-02-03T06:02:36;5.68;;;1.70;;
39276;SDS011;63149;48.086;-1.606;2023-02-03T06:05:03;3.33;;;1.83;;
39276;SDS011;63149;48.086;-1.606;2023-02-03T06:07:30;2.97;;;1.60;;
39276;SDS011;63149;48.086;-1.606;2023-02-03T06:09:57;4.55;;;1.83;;
39276;SDS011;63149;48.086;-1.606;2023-02-03T06:12:24;3.15;;;1.58;;
39276;SDS011;63149;48.086;-1.606;2023-02-03T06:14:51;2.53;;;1.58;;
39276;SDS011;63149;48.086;-1.606;2023-02-03T06:17:19;3.95;;;1.73;;
39276;SDS011;63149;48.086;-1.606;2023-02-03T06:19:46;4.35;;;1.55;;
39276;SDS011;63149;48.086;-1.606;2023-02-03T06:22:13;4.28;;;1.85;;
39276;SDS011;63149;48.086;-1.606;2023-02-03T06:24:40;2.60;;;1.40;;
39276;SDS011;63149;48.086;-1.606;2023-02-03T06:27:08;3.85;;;1.77;;
39276;SDS011;63149;48.086;-1.606;2023-02-03T06:29:35;7.90;;;2.53;;
39276;SDS011;63149;48.086;-1.606;2023-02-03T06:32:02;2.95;;;1.65;;
39276;SDS011;63149;48.086;-1.606;2023-02-03T06:34:31;6.82;;;1.90;;
39276;SDS011;63149;48.086;-1.606;2023-02-03T06:36:58;3.35;;;2.05;;
39276;SDS011;63149;48.086;-1.606;2023-02-03T06:39:25;5.38;;;2.00;;
39276;SDS011;63149;48.086;-1.606;2023-02-03T06:41:52;8.73;;;2.10;;
39276;SDS011;63149;48.086;-1.606;2023-02-03T06:44:20;4.25;;;2.30;;
39276;SDS011;63149;48.086;-1.606;2023-02-03T06:46:47;3.63;;;1.80;;
39276;SDS011;63149;48.086;-1.606;2023-02-03T06:49:14;5.30;;;2.00;;
39276;SDS011;63149;48.086;-1.606;2023-02-03T06:51:43;8.32;;;2.17;;
39276;SDS011;63149;48.086;-1.606;2023-02-03T06:54:10;6.00;;;1.98;;
39276;SDS011;63149;48.086;-1.606;2023-02-03T06:56:38;3.75;;;1.70;;
39276;SDS011;63149;48.086;-1.606;2023-02-03T06:59:05;6.53;;;2.15;;
39276;SDS011;63149;48.086;-1.606;2023-02-03T07:01:34;3.38;;;1.80;;
39276;SDS011;63149;48.086;-1.606;2023-02-03T07:04:01;2.10;;;1.48;;
39276;SDS011;63149;48.086;-1.606;2023-02-03T07:06:28;7.35;;;1.77;;
39276;SDS011;63149;48.086;-1.606;2023-02-03T07:08:59;5.03;;;1.50;;
39276;SDS011;63149;48.086;-1.606;2023-02-03T07:11:27;3.47;;;1.60;;
39276;SDS011;63149;48.086;-1.606;2023-02-03T07:13:54;4.57;;;1.67;;
39276;SDS011;63149;48.086;-1.606;2023-02-03T07:16:21;4.45;;;1.63;;
39276;SDS011;63149;48.086;-1.606;2023-02-03T07:18:48;2.85;;;1.63;;
39276;SDS011;63149;48.086;-1.606;2023-02-03T07:21:16;4.30;;;1.80;;
39276;SDS011;63149;48.086;-1.606;2023-02-03T07:23:45;2.88;;;1.60;;
39276;SDS011;63149;48.086;-1.606;2023-02-03T07:26:14;4.65;;;1.88;;
39276;SDS011;63149;48.086;-1.606;2023-02-03T07:28:41;6.35;;;1.98;;
39276;SDS011;63149;48.086;-1.606;2023-02-03T07:31:08;3.83;;;1.65;;
39276;SDS011;63149;48.086;-1.606;2023-02-03T07:33:35;4.30;;;1.65;;
39276;SDS011;63149;48.086;-1.606;2023-02-03T07:36:03;4.05;;;1.70;;
39276;SDS011;63149;48.086;-1.606;2023-02-03T07:38:30;5.05;;;1.70;;
39276;SDS011;63149;48.086;-1.606;2023-02-03T07:40:58;4.30;;;1.75;;
39276;SDS011;63149;48.086;-1.606;2023-02-03T07:43:26;5.63;;;2.20;;
39276;SDS011;63149;48.086;-1.606;2023-02-03T07:45:53;4.95;;;2.20;;
39276;SDS011;63149;48.086;-1.606;2023-02-03T07:48:20;5.80;;;2.20;;
39276;SDS011;63149;48.086;-1.606;2023-02-03T07:50:47;5.45;;;2.55;;
39276;SDS011;63149;48.086;-1.606;2023-02-03T07:53:14;9.50;;;2.67;;
39276;SDS011;63149;48.086;-1.606;2023-02-03T07:55:42;6.03;;;2.10;;
39276;SDS011;63149;48.086;-1.606;2023-02-03T07:58:09;3.53;;;2.30;;
39276;SDS011;63149;48.086;-1.606;2023-02-03T08:00:37;11.70;;;3.03;;
39276;SDS011;63149;48.086;-1.606;2023-02-03T08:03:04;11.75;;;3.33;;
39276;SDS011;63149;48.086;-1.606;2023-02-03T08:05:31;5.63;;;2.60;;
39276;SDS011;63149;48.086;-1.606;2023-02-03T08:07:58;4.47;;;2.67;;
39276;SDS011;63149;48.086;-1.606;2023-02-03T08:10:25;7.93;;;3.08;;
39276;SDS011;63149;48.086;-1.606;2023-02-03T08:12:52;7.38;;;2.83;;
39276;SDS011;63149;48.086;-1.606;2023-02-03T08:15:19;5.18;;;2.72;;
39276;SDS011;63149;48.086;-1.606;2023-02-03T08:17:48;3.30;;;2.30;;
39276;SDS011;63149;48.086;-1.606;2023-02-03T08:20:16;4.28;;;2.10;;
39276;SDS011;63149;48.086;-1.606;2023-02-03T08:22:43;5.82;;;2.40;;
39276;SDS011;63149;48.086;-1.606;2023-02-03T08:25:11;3.38;;;2.25;;
39276;SDS011;63149;48.086;-1.606;2023-02-03T08:27:38;5.47;;;2.42;;
39276;SDS011;63149;48.086;-1.606;2023-02-03T08:30:06;5.07;;;2.85;;
39276;SDS011;63149;48.086;-1.606;2023-02-03T08:32:36;10.85;;;3.22;;
39276;SDS011;63149;48.086;-1.606;2023-02-03T08:35:05;5.55;;;2.88;;
39276;SDS011;63149;48.086;-1.606;2023-02-03T08:37:32;14.05;;;3.00;;
39276;SDS011;63149;48.086;-1.606;2023-02-03T08:39:59;10.73;;;3.25;;
39276;SDS011;63149;48.086;-1.606;2023-02-03T08:42:26;6.60;;;3.40;;
39276;SDS011;63149;48.086;-1.606;2023-02-03T08:44:53;21.15;;;7.53;;
39276;SDS011;63149;48.086;-1.606;2023-02-03T08:47:21;18.80;;;8.38;;
39276;SDS011;63149;48.086;-1.606;2023-02-03T08:49:47;15.02;;;6.40;;
39276;SDS011;63149;48.086;-1.606;2023-02-03T08:52:16;10.82;;;4.00;;
39276;SDS011;63149;48.086;-1.606;2023-02-03T08:54:43;7.15;;;3.50;;
39276;SDS011;63149;48.086;-1.606;2023-02-03T08:57:10;8.05;;;2.70;;
39276;SDS011;63149;48.086;-1.606;2023-02-03T08:59:37;9.07;;;3.10;;
39276;SDS011;63149;48.086;-1.606;2023-02-03T09:02:06;5.47;;;2.78;;
39276;SDS011;63149;48.086;-1.606;2023-02-03T09:04:36;9.52;;;3.33;;
39276;SDS011;63149;48.086;-1.606;2023-02-03T09:07:03;5.22;;;3.35;;
39276;SDS011;63149;48.086;-1.606;2023-02-03T09:09:31;9.95;;;4.70;;
39276;SDS011;63149;48.086;-1.606;2023-02-03T09:11:58;6.40;;;2.30;;
39276;SDS011;63149;48.086;-1.606;2023-02-03T09:14:29;10.68;;;3.63;;
39276;SDS011;63149;48.086;-1.606;2023-02-03T09:16:57;9.13;;;3.30;;
39276;SDS011;63149;48.086;-1.606;2023-02-03T09:19:24;12.00;;;3.35;;
39276;SDS011;63149;48.086;-1.606;2023-02-03T09:21:51;5.55;;;3.35;;
39276;SDS011;63149;48.086;-1.606;2023-02-03T09:24:18;8.93;;;4.50;;
39276;SDS011;63149;48.086;-1.606;2023-02-03T09:26:47;8.15;;;3.13;;
39276;SDS011;63149;48.086;-1.606;2023-02-03T09:29:15;14.88;;;4.50;;
39276;SDS011;63149;48.086;-1.606;2023-02-03T09:31:42;4.90;;;2.40;;
39276;SDS011;63149;48.086;-1.606;2023-02-03T09:34:10;8.82;;;3.20;;
39276;SDS011;63149;48.086;-1.606;2023-02-03T09:36:37;5.38;;;3.13;;
39276;SDS011;63149;48.086;-1.606;2023-02-03T09:39:04;5.75;;;3.30;;
39276;SDS011;63149;48.086;-1.606;2023-02-03T09:41:36;13.77;;;4.93;;
39276;SDS011;63149;48.086;-1.606;2023-02-03T09:44:16;8.63;;;3.42;;
39276;SDS011;63149;48.086;-1.606;2023-02-03T09:46:49;10.32;;;3.53;;
39276;SDS011;63149;48.086;-1.606;2023-02-03T09:49:21;7.45;;;2.92;;
39276;SDS011;63149;48.086;-1.606;2023-02-03T09:51:53;7.57;;;3.10;;
39276;SDS011;63149;48.086;-1.606;2023-02-03T09:54:25;12.57;;;3.92;;
39276;SDS011;63149;48.086;-1.606;2023-02-03T09:57:05;4.10;;;2.83;;
39276;SDS011;63149;48.086;-1.606;2023-02-03T09:59:38;6.78;;;3.33;;
39276;SDS011;63149;48.086;-1.606;2023-02-03T10:02:10;6.25;;;3.47;;
39276;SDS011;63149;48.086;-1.606;2023-02-03T10:07:18;6.63;;;2.47;;
39276;SDS011;63149;48.086;-1.606;2023-02-03T10:09:55;5.68;;;2.10;;
39276;SDS011;63149;48.086;-1.606;2023-02-03T10:12:45;4.70;;;1.98;;
39276;SDS011;63149;48.086;-1.606;2023-02-03T10:15:46;4.57;;;1.95;;
39276;SDS011;63149;48.086;-1.606;2023-02-03T10:18:27;4.25;;;2.17;;
39276;SDS011;63149;48.086;-1.606;2023-02-03T10:20:59;3.80;;;2.03;;
39276;SDS011;63149;48.086;-1.606;2023-02-03T10:25:59;3.42;;;1.88;;
39276;SDS011;63149;48.086;-1.606;2023-02-03T10:28:30;5.72;;;2.65;;
39276;SDS011;63149;48.086;-1.606;2023-02-03T10:31:05;2.70;;;1.80;;
39276;SDS011;63149;48.086;-1.606;2023-02-03T10:33:41;4.03;;;2.13;;
39276;SDS011;63149;48.086;-1.606;2023-02-03T10:36:10;5.90;;;2.30;;
39276;SDS011;63149;48.086;-1.606;2023-02-03T10:38:45;6.32;;;2.50;;
39276;SDS011;63149;48.086;-1.606;2023-02-03T10:41:23;3.88;;;2.20;;
39276;SDS011;63149;48.086;-1.606;2023-02-03T10:43:52;8.52;;;2.72;;
39276;SDS011;63149;48.086;-1.606;2023-02-03T10:46:20;4.05;;;1.92;;
39276;SDS011;63149;48.086;-1.606;2023-02-03T10:48:52;5.95;;;2.08;;
39276;SDS011;63149;48.086;-1.606;2023-02-03T10:51:20;4.32;;;1.83;;
39276;SDS011;63149;48.086;-1.606;2023-02-03T10:53:49;4.55;;;2.10;;
39276;SDS011;63149;48.086;-1.606;2023-02-03T10:56:18;5.18;;;2.10;;
39276;SDS011;63149;48.086;-1.606;2023-02-03T10:58:48;4.20;;;2.65;;
39276;SDS011;63149;48.086;-1.606;2023-02-03T11:01:22;8.43;;;2.20;;
39276;SDS011;63149;48.086;-1.606;2023-02-03T11:03:55;3.10;;;2.03;;
39276;SDS011;63149;48.086;-1.606;2023-02-03T11:06:24;3.40;;;2.70;;
39276;SDS011;63149;48.086;-1.606;2023-02-03T11:08:52;3.13;;;2.17;;
39276;SDS011;63149;48.086;-1.606;2023-02-03T11:11:20;3.85;;;2.47;;
39276;SDS011;63149;48.086;-1.606;2023-02-03T11:13:53;4.13;;;2.50;;
39276;SDS011;63149;48.086;-1.606;2023-02-03T11:16:22;4.38;;;2.30;;
39276;SDS011;63149;48.086;-1.606;2023-02-03T11:18:51;5.32;;;2.75;;
39276;SDS011;63149;48.086;-1.606;2023-02-03T11:21:24;3.25;;;1.90;;
39276;SDS011;63149;48.086;-1.606;2023-02-03T11:23:54;6.05;;;1.73;;
39276;SDS011;63149;48.086;-1.606;2023-02-03T11:26:27;4.10;;;2.08;;
39276;SDS011;63149;48.086;-1.606;2023-02-03T11:28:58;2.47;;;1.70;;
39276;SDS011;63149;48.086;-1.606;2023-02-03T11:31:28;2.05;;;1.73;;
39276;SDS011;63149;48.086;-1.606;2023-02-03T11:33:59;3.20;;;2.00;;
39276;SDS011;63149;48.086;-1.606;2023-02-03T11:36:29;3.10;;;1.67;;
39276;SDS011;63149;48.086;-1.606;2023-02-03T11:39:13;2.13;;;1.33;;
39276;SDS011;63149;48.086;-1.606;2023-02-03T11:41:44;1.95;;;1.75;;
39276;SDS011;63149;48.086;-1.606;2023-02-03T11:44:15;2.67;;;1.60;;
39276;SDS011;63149;48.086;-1.606;2023-02-03T11:46:45;4.65;;;2.00;;
39276;SDS011;63149;48.086;-1.606;2023-02-03T11:52:36;3.85;;;1.65;;
39276;SDS011;63149;48.086;-1.606;2023-02-03T11:55:16;4.70;;;2.10;;
39276;SDS011;63149;48.086;-1.606;2023-02-03T11:57:52;7.30;;;2.03;;
39276;SDS011;63149;48.086;-1.606;2023-02-03T12:00:30;3.80;;;1.80;;
39276;SDS011;63149;48.086;-1.606;2023-02-03T12:03:14;1.80;;;1.55;;
39276;SDS011;63149;48.086;-1.606;2023-02-03T12:05:59;3.50;;;1.90;;
39276;SDS011;63149;48.086;-1.606;2023-02-03T12:08:36;2.65;;;1.30;;
39276;SDS011;63149;48.086;-1.606;2023-02-03T12:11:16;1.45;;;1.35;;
39276;SDS011;63149;48.086;-1.606;2023-02-03T12:17:03;4.07;;;1.48;;
39276;SDS011;63149;48.086;-1.606;2023-02-03T12:19:51;3.22;;;2.10;;
39276;SDS011;63149;48.086;-1.606;2023-02-03T12:22:33;2.10;;;1.85;;
39276;SDS011;63149;48.086;-1.606;2023-02-03T12:25:16;2.50;;;1.50;;
39276;SDS011;63149;48.086;-1.606;2023-02-03T12:27:54;2.45;;;1.67;;
39276;SDS011;63149;48.086;-1.606;2023-02-03T12:30:31;3.60;;;1.70;;
39276;SDS011;63149;48.086;-1.606;2023-02-03T12:33:04;6.15;;;2.22;;
39276;SDS011;63149;48.086;-1.606;2023-02-03T12:35:38;5.93;;;1.80;;
39276;SDS011;63149;48.086;-1.606;2023-02-03T12:38:15;4.18;;;2.10;;
39276;SDS011;63149;48.086;-1.606;2023-02-03T12:40:48;3.55;;;1.55;;
39276;SDS011;63149;48.086;-1.606;2023-02-03T12:43:20;2.53;;;1.83;;
39276;SDS011;63149;48.086;-1.606;2023-02-03T12:45:51;2.10;;;1.77;;
39276;SDS011;63149;48.086;-1.606;2023-02-03T12:48:22;3.65;;;1.55;;
39276;SDS011;63149;48.086;-1.606;2023-02-03T12:50:57;2.58;;;1.70;;
39276;SDS011;63149;48.086;-1.606;2023-02-03T12:53:29;4.10;;;1.70;;
39276;SDS011;63149;48.086;-1.606;2023-02-03T12:56:01;2.40;;;1.60;;
39276;SDS011;63149;48.086;-1.606;2023-02-03T12:58:35;3.33;;;1.85;;
39276;SDS011;63149;48.086;-1.606;2023-02-03T13:01:06;2.63;;;1.57;;
39276;SDS011;63149;48.086;-1.606;2023-02-03T13:03:38;2.78;;;1.80;;
39276;SDS011;63149;48.086;-1.606;2023-02-03T13:06:13;3.17;;;1.65;;
39276;SDS011;63149;48.086;-1.606;2023-02-03T13:08:46;5.38;;;1.67;;
39276;SDS011;63149;48.086;-1.606;2023-02-03T13:11:18;4.07;;;2.00;;
39276;SDS011;63149;48.086;-1.606;2023-02-03T13:13:51;4.13;;;1.30;;
39276;SDS011;63149;48.086;-1.606;2023-02-03T13:16:22;4.25;;;1.73;;
39276;SDS011;63149;48.086;-1.606;2023-02-03T13:18:52;2.95;;;1.70;;
39276;SDS011;63149;48.086;-1.606;2023-02-03T13:21:22;3.67;;;1.60;;
39276;SDS011;63149;48.086;-1.606;2023-02-03T13:23:49;6.30;;;2.47;;
39276;SDS011;63149;48.086;-1.606;2023-02-03T13:29:19;4.68;;;2.60;;
39276;SDS011;63149;48.086;-1.606;2023-02-03T13:32:00;6.85;;;2.85;;
39276;SDS011;63149;48.086;-1.606;2023-02-03T13:34:42;3.63;;;2.53;;
39276;SDS011;63149;48.086;-1.606;2023-02-03T13:37:35;7.13;;;3.22;;
39276;SDS011;63149;48.086;-1.606;2023-02-03T13:43:02;6.15;;;3.08;;
39276;SDS011;63149;48.086;-1.606;2023-02-03T13:45:32;4.75;;;2.65;;
39276;SDS011;63149;48.086;-1.606;2023-02-03T13:48:06;5.18;;;2.40;;
39276;SDS011;63149;48.086;-1.606;2023-02-03T13:50:36;5.25;;;2.47;;
39276;SDS011;63149;48.086;-1.606;2023-02-03T13:53:06;3.90;;;2.20;;
39276;SDS011;63149;48.086;-1.606;2023-02-03T13:55:41;3.05;;;2.35;;
39276;SDS011;63149;48.086;-1.606;2023-02-03T13:58:18;5.35;;;2.47;;
39276;SDS011;63149;48.086;-1.606;2023-02-03T14:01:03;5.05;;;2.53;;
39276;SDS011;63149;48.086;-1.606;2023-02-03T14:03:48;5.32;;;2.28;;
39276;SDS011;63149;48.086;-1.606;2023-02-03T14:09:44;4.10;;;2.53;;
39276;SDS011;63149;48.086;-1.606;2023-02-03T14:12:16;3.35;;;2.50;;
39276;SDS011;63149;48.086;-1.606;2023-02-03T14:14:58;3.80;;;2.38;;
39276;SDS011;63149;48.086;-1.606;2023-02-03T14:20:44;4.13;;;1.95;;
39276;SDS011;63149;48.086;-1.606;2023-02-03T14:23:27;3.65;;;2.38;;
39276;SDS011;63149;48.086;-1.606;2023-02-03T14:26:06;2.47;;;2.10;;
39276;SDS011;63149;48.086;-1.606;2023-02-03T14:28:45;3.63;;;2.67;;
39276;SDS011;63149;48.086;-1.606;2023-02-03T14:31:15;3.67;;;2.25;;
39276;SDS011;63149;48.086;-1.606;2023-02-03T14:34:01;3.70;;;2.38;;
39276;SDS011;63149;48.086;-1.606;2023-02-03T14:36:34;4.15;;;2.72;;
39276;SDS011;63149;48.086;-1.606;2023-02-03T14:42:04;4.60;;;2.95;;
39276;SDS011;63149;48.086;-1.606;2023-02-03T14:44:38;4.60;;;2.65;;
39276;SDS011;63149;48.086;-1.606;2023-02-03T14:47:16;3.55;;;1.90;;
39276;SDS011;63149;48.086;-1.606;2023-02-03T14:50:00;3.92;;;1.42;;
39276;SDS011;63149;48.086;-1.606;2023-02-03T14:52:39;1.25;;;1.10;;
39276;SDS011;63149;48.086;-1.606;2023-02-03T14:55:24;3.20;;;1.40;;
39276;SDS011;63149;48.086;-1.606;2023-02-03T14:58:02;2.85;;;1.85;;
39276;SDS011;63149;48.086;-1.606;2023-02-03T15:00:33;1.77;;;1.38;;
39276;SDS011;63149;48.086;-1.606;2023-02-03T15:03:18;1.40;;;1.30;;
39276;SDS011;63149;48.086;-1.606;2023-02-03T15:05:47;2.67;;;1.60;;
39276;SDS011;63149;48.086;-1.606;2023-02-03T15:11:20;5.18;;;1.52;;
39276;SDS011;63149;48.086;-1.606;2023-02-03T15:13:52;4.50;;;3.10;;
39276;SDS011;63149;48.086;-1.606;2023-02-03T15:16:20;2.58;;;2.30;;
39276;SDS011;63149;48.086;-1.606;2023-02-03T15:18:56;4.13;;;2.15;;
39276;SDS011;63149;48.086;-1.606;2023-02-03T15:21:24;3.03;;;1.75;;
39276;SDS011;63149;48.086;-1.606;2023-02-03T15:23:51;5.75;;;1.77;;
39276;SDS011;63149;48.086;-1.606;2023-02-03T15:26:20;8.15;;;3.47;;
39276;SDS011;63149;48.086;-1.606;2023-02-03T15:28:54;5.30;;;2.45;;
39276;SDS011;63149;48.086;-1.606;2023-02-03T15:31:24;3.63;;;2.25;;
39276;SDS011;63149;48.086;-1.606;2023-02-03T15:33:58;5.50;;;2.40;;
39276;SDS011;63149;48.086;-1.606;2023-02-03T15:36:31;4.53;;;2.40;;
39276;SDS011;63149;48.086;-1.606;2023-02-03T15:39:09;4.25;;;2.70;;
39276;SDS011;63149;48.086;-1.606;2023-02-03T15:41:45;5.80;;;2.15;;
39276;SDS011;63149;48.086;-1.606;2023-02-03T15:44:21;4.88;;;2.22;;
39276;SDS011;63149;48.086;-1.606;2023-02-03T15:46:53;2.90;;;2.00;;
39276;SDS011;63149;48.086;-1.606;2023-02-03T15:49:23;4.13;;;1.85;;
39276;SDS011;63149;48.086;-1.606;2023-02-03T15:51:53;3.75;;;2.08;;
39276;SDS011;63149;48.086;-1.606;2023-02-03T15:54:23;3.20;;;1.95;;
39276;SDS011;63149;48.086;-1.606;2023-02-03T15:56:55;7.82;;;3.20;;
39276;SDS011;63149;48.086;-1.606;2023-02-03T15:59:28;11.75;;;4.82;;
39276;SDS011;63149;48.086;-1.606;2023-02-03T16:01:59;8.27;;;3.30;;
39276;SDS011;63149;48.086;-1.606;2023-02-03T16:04:32;7.93;;;2.78;;
39276;SDS011;63149;48.086;-1.606;2023-02-03T16:06:59;3.85;;;2.40;;
39276;SDS011;63149;48.086;-1.606;2023-02-03T16:09:27;3.83;;;2.72;;
39276;SDS011;63149;48.086;-1.606;2023-02-03T16:12:13;3.15;;;2.20;;
39276;SDS011;63149;48.086;-1.606;2023-02-03T16:14:43;4.72;;;2.33;;
39276;SDS011;63149;48.086;-1.606;2023-02-03T16:17:20;3.60;;;2.53;;
39276;SDS011;63149;48.086;-1.606;2023-02-03T16:20:05;5.10;;;3.00;;
39276;SDS011;63149;48.086;-1.606;2023-02-03T16:22:59;5.78;;;2.83;;
39276;SDS011;63149;48.086;-1.606;2023-02-03T16:25:30;7.15;;;2.60;;
39276;SDS011;63149;48.086;-1.606;2023-02-03T16:27:58;6.80;;;3.28;;
39276;SDS011;63149;48.086;-1.606;2023-02-03T16:30:53;4.18;;;2.80;;
39276;SDS011;63149;48.086;-1.606;2023-02-03T16:33:39;11.88;;;4.28;;
39276;SDS011;63149;48.086;-1.606;2023-02-03T16:36:26;7.70;;;3.15;;
39276;SDS011;63149;48.086;-1.606;2023-02-03T16:39:11;6.22;;;2.90;;
39276;SDS011;63149;48.086;-1.606;2023-02-03T16:41:56;8.85;;;3.35;;
39276;SDS011;63149;48.086;-1.606;2023-02-03T16:44:41;7.32;;;3.30;;
39276;SDS011;63149;48.086;-1.606;2023-02-03T16:47:28;5.68;;;3.10;;
39276;SDS011;63149;48.086;-1.606;2023-02-03T16:50:14;7.20;;;3.53;;
39276;SDS011;63149;48.086;-1.606;2023-02-03T16:53:01;6.85;;;3.25;;
39276;SDS011;63149;48.086;-1.606;2023-02-03T16:55:28;5.35;;;2.70;;
39276;SDS011;63149;48.086;-1.606;2023-02-03T16:57:55;3.85;;;1.60;;
39276;SDS011;63149;48.086;-1.606;2023-02-03T17:00:22;6.45;;;2.00;;
39276;SDS011;63149;48.086;-1.606;2023-02-03T17:02:51;4.70;;;2.50;;
39276;SDS011;63149;48.086;-1.606;2023-02-03T17:05:18;3.28;;;1.88;;
39276;SDS011;63149;48.086;-1.606;2023-02-03T17:07:45;4.30;;;2.05;;
39276;SDS011;63149;48.086;-1.606;2023-02-03T17:10:13;5.47;;;2.13;;
39276;SDS011;63149;48.086;-1.606;2023-02-03T17:12:40;3.20;;;1.40;;
39276;SDS011;63149;48.086;-1.606;2023-02-03T17:15:07;3.00;;;1.60;;
39276;SDS011;63149;48.086;-1.606;2023-02-03T17:17:34;5.82;;;2.60;;
39276;SDS011;63149;48.086;-1.606;2023-02-03T17:20:03;4.07;;;2.15;;
39276;SDS011;63149;48.086;-1.606;2023-02-03T17:22:31;3.47;;;1.80;;
39276;SDS011;63149;48.086;-1.606;2023-02-03T17:24:58;5.47;;;1.88;;
39276;SDS011;63149;48.086;-1.606;2023-02-03T17:27:25;6.07;;;1.58;;
39276;SDS011;63149;48.086;-1.606;2023-02-03T17:29:52;6.72;;;1.77;;
39276;SDS011;63149;48.086;-1.606;2023-02-03T17:32:19;3.60;;;2.70;;
39276;SDS011;63149;48.086;-1.606;2023-02-03T17:34:46;3.28;;;2.17;;
39276;SDS011;63149;48.086;-1.606;2023-02-03T17:37:14;5.60;;;2.60;;
39276;SDS011;63149;48.086;-1.606;2023-02-03T17:39:41;3.08;;;2.55;;
39276;SDS011;63149;48.086;-1.606;2023-02-03T17:42:08;5.70;;;2.20;;
39276;SDS011;63149;48.086;-1.606;2023-02-03T17:44:35;6.60;;;2.78;;
39276;SDS011;63149;48.086;-1.606;2023-02-03T17:47:02;2.63;;;2.17;;
39276;SDS011;63149;48.086;-1.606;2023-02-03T17:49:30;2.90;;;2.28;;
39276;SDS011;63149;48.086;-1.606;2023-02-03T17:51:57;3.42;;;2.25;;
39276;SDS011;63149;48.086;-1.606;2023-02-03T17:54:25;6.82;;;2.80;;
39276;SDS011;63149;48.086;-1.606;2023-02-03T17:56:52;5.95;;;2.80;;
39276;SDS011;63149;48.086;-1.606;2023-02-03T17:59:19;6.07;;;2.88;;
39276;SDS011;63149;48.086;-1.606;2023-02-03T18:01:46;4.13;;;2.35;;
39276;SDS011;63149;48.086;-1.606;2023-02-03T18:04:13;7.35;;;2.10;;
39276;SDS011;63149;48.086;-1.606;2023-02-03T18:06:39;5.50;;;2.60;;
39276;SDS011;63149;48.086;-1.606;2023-02-03T18:09:07;5.35;;;1.90;;
39276;SDS011;63149;48.086;-1.606;2023-02-03T18:11:39;3.17;;;1.80;;
39276;SDS011;63149;48.086;-1.606;2023-02-03T18:14:06;5.78;;;2.78;;
39276;SDS011;63149;48.086;-1.606;2023-02-03T18:16:35;5.90;;;2.72;;
39276;SDS011;63149;48.086;-1.606;2023-02-03T18:19:03;5.35;;;2.75;;
39276;SDS011;63149;48.086;-1.606;2023-02-03T18:21:31;8.18;;;4.88;;
39276;SDS011;63149;48.086;-1.606;2023-02-03T18:23:58;11.20;;;5.43;;
39276;SDS011;63149;48.086;-1.606;2023-02-03T18:26:27;7.95;;;4.70;;
39276;SDS011;63149;48.086;-1.606;2023-02-03T18:28:58;8.70;;;4.20;;
39276;SDS011;63149;48.086;-1.606;2023-02-03T18:31:25;6.53;;;3.40;;
39276;SDS011;63149;48.086;-1.606;2023-02-03T18:33:52;5.65;;;3.35;;
39276;SDS011;63149;48.086;-1.606;2023-02-03T18:36:19;4.43;;;3.45;;
39276;SDS011;63149;48.086;-1.606;2023-02-03T18:38:47;7.13;;;3.80;;
39276;SDS011;63149;48.086;-1.606;2023-02-03T18:41:15;11.80;;;5.47;;
39276;SDS011;63149;48.086;-1.606;2023-02-03T18:43:43;7.28;;;4.40;;
39276;SDS011;63149;48.086;-1.606;2023-02-03T18:46:12;7.13;;;4.43;;
39276;SDS011;63149;48.086;-1.606;2023-02-03T18:48:42;10.50;;;5.32;;
39276;SDS011;63149;48.086;-1.606;2023-02-03T18:51:10;10.02;;;4.97;;
39276;SDS011;63149;48.086;-1.606;2023-02-03T18:53:38;8.20;;;4.80;;
39276;SDS011;63149;48.086;-1.606;2023-02-03T18:56:06;9.18;;;4.80;;
39276;SDS011;63149;48.086;-1.606;2023-02-03T18:58:35;11.75;;;5.75;;
39276;SDS011;63149;48.086;-1.606;2023-02-03T19:01:03;9.48;;;5.22;;
39276;SDS011;63149;48.086;-1.606;2023-02-03T19:03:31;10.43;;;4.88;;
39276;SDS011;63149;48.086;-1.606;2023-02-03T19:05:58;10.05;;;4.90;;
39276;SDS011;63149;48.086;-1.606;2023-02-03T19:08:25;9.18;;;5.25;;
39276;SDS011;63149;48.086;-1.606;2023-02-03T19:10:53;9.18;;;5.45;;
39276;SDS011;63149;48.086;-1.606;2023-02-03T19:13:20;8.30;;;4.97;;
39276;SDS011;63149;48.086;-1.606;2023-02-03T19:15:48;10.40;;;5.43;;
39276;SDS011;63149;48.086;-1.606;2023-02-03T19:18:16;9.35;;;5.72;;
39276;SDS011;63149;48.086;-1.606;2023-02-03T19:20:45;15.77;;;7.68;;
39276;SDS011;63149;48.086;-1.606;2023-02-03T19:23:11;14.90;;;7.45;;
39276;SDS011;63149;48.086;-1.606;2023-02-03T19:25:38;14.73;;;8.55;;
39276;SDS011;63149;48.086;-1.606;2023-02-03T19:28:06;12.00;;;6.47;;
39276;SDS011;63149;48.086;-1.606;2023-02-03T19:30:34;11.23;;;6.32;;
39276;SDS011;63149;48.086;-1.606;2023-02-03T19:33:01;14.80;;;6.50;;
39276;SDS011;63149;48.086;-1.606;2023-02-03T19:35:28;14.77;;;7.10;;
39276;SDS011;63149;48.086;-1.606;2023-02-03T19:37:58;17.17;;;10.23;;
39276;SDS011;63149;48.086;-1.606;2023-02-03T19:40:25;17.25;;;9.63;;
39276;SDS011;63149;48.086;-1.606;2023-02-03T19:42:52;18.95;;;10.07;;
39276;SDS011;63149;48.086;-1.606;2023-02-03T19:45:19;15.13;;;9.43;;
39276;SDS011;63149;48.086;-1.606;2023-02-03T19:47:47;19.67;;;10.32;;
39276;SDS011;63149;48.086;-1.606;2023-02-03T19:50:14;22.73;;;13.30;;
39276;SDS011;63149;48.086;-1.606;2023-02-03T19:52:41;19.08;;;10.57;;
39276;SDS011;63149;48.086;-1.606;2023-02-03T19:55:10;16.50;;;10.75;;
39276;SDS011;63149;48.086;-1.606;2023-02-03T20:00:07;17.42;;;11.00;;
39276;SDS011;63149;48.086;-1.606;2023-02-03T20:02:35;20.23;;;10.82;;
39276;SDS011;63149;48.086;-1.606;2023-02-03T20:05:04;16.80;;;9.25;;
39276;SDS011;63149;48.086;-1.606;2023-02-03T20:07:31;14.25;;;9.43;;
39276;SDS011;63149;48.086;-1.606;2023-02-03T20:09:58;9.90;;;6.53;;
39276;SDS011;63149;48.086;-1.606;2023-02-03T20:12:26;11.15;;;6.32;;
39276;SDS011;63149;48.086;-1.606;2023-02-03T20:14:54;9.55;;;6.03;;
39276;SDS011;63149;48.086;-1.606;2023-02-03T20:17:24;10.07;;;5.85;;
39276;SDS011;63149;48.086;-1.606;2023-02-03T20:19:51;16.85;;;8.88;;
39276;SDS011;63149;48.086;-1.606;2023-02-03T20:22:18;17.33;;;8.88;;
39276;SDS011;63149;48.086;-1.606;2023-02-03T20:24:45;14.07;;;9.45;;
39276;SDS011;63149;48.086;-1.606;2023-02-03T20:27:12;16.55;;;10.15;;
39276;SDS011;63149;48.086;-1.606;2023-02-03T20:29:40;14.85;;;8.68;;
39276;SDS011;63149;48.086;-1.606;2023-02-03T20:32:07;11.20;;;7.43;;
39276;SDS011;63149;48.086;-1.606;2023-02-03T20:34:35;7.60;;;5.53;;
39276;SDS011;63149;48.086;-1.606;2023-02-03T20:37:02;4.43;;;3.47;;
39276;SDS011;63149;48.086;-1.606;2023-02-03T20:39:30;9.27;;;4.68;;
39276;SDS011;63149;48.086;-1.606;2023-02-03T20:41:57;7.75;;;4.75;;
39276;SDS011;63149;48.086;-1.606;2023-02-03T20:44:24;6.60;;;3.72;;
39276;SDS011;63149;48.086;-1.606;2023-02-03T20:46:53;6.28;;;3.83;;
39276;SDS011;63149;48.086;-1.606;2023-02-03T20:49:20;5.88;;;3.03;;
39276;SDS011;63149;48.086;-1.606;2023-02-03T20:51:47;8.85;;;3.67;;
39276;SDS011;63149;48.086;-1.606;2023-02-03T20:54:15;7.85;;;3.80;;
39276;SDS011;63149;48.086;-1.606;2023-02-03T20:56:44;6.38;;;3.55;;
39276;SDS011;63149;48.086;-1.606;2023-02-03T20:59:11;6.55;;;4.18;;
39276;SDS011;63149;48.086;-1.606;2023-02-03T21:01:41;6.07;;;4.25;;
39276;SDS011;63149;48.086;-1.606;2023-02-03T21:04:12;6.68;;;3.80;;
39276;SDS011;63149;48.086;-1.606;2023-02-03T21:06:58;5.60;;;3.65;;
39276;SDS011;63149;48.086;-1.606;2023-02-03T21:09:25;6.72;;;4.20;;
39276;SDS011;63149;48.086;-1.606;2023-02-03T21:11:52;6.43;;;3.83;;
39276;SDS011;63149;48.086;-1.606;2023-02-03T21:14:20;9.93;;;5.13;;
39276;SDS011;63149;48.086;-1.606;2023-02-03T21:16:49;11.80;;;6.85;;
39276;SDS011;63149;48.086;-1.606;2023-02-03T21:19:25;12.90;;;6.13;;
39276;SDS011;63149;48.086;-1.606;2023-02-03T21:21:54;7.55;;;4.85;;
39276;SDS011;63149;48.086;-1.606;2023-02-03T21:24:23;7.68;;;4.65;;
39276;SDS011;63149;48.086;-1.606;2023-02-03T21:26:52;10.48;;;5.10;;
39276;SDS011;63149;48.086;-1.606;2023-02-03T21:29:21;6.65;;;4.80;;